createdAt,value
2022-12-26T00:00:39.147Z,11.07
2022-12-26T00:03:00.736Z,11.12
2022-12-26T00:05:22.289Z,11.24
2022-12-26T00:07:43.993Z,11.16
2022-12-26T00:10:05.943Z,11.21
2022-12-26T00:12:27.422Z,11.29
2022-12-26T00:14:49.054Z,11.24
2022-12-26T00:17:10.530Z,11.28
2022-12-26T00:19:31.958Z,11.35
2022-12-26T00:21:53.387Z,11.29
2022-12-26T00:24:14.900Z,11.28
2022-12-26T00:26:36.967Z,11.32
2022-12-26T00:28:58.813Z,11.33
2022-12-26T00:31:23.775Z,11.41
2022-12-26T00:33:45.757Z,11.43
2022-12-26T00:36:10.244Z,11.39
2022-12-26T00:38:31.932Z,11.31
2022-12-26T00:40:53.377Z,11.31
2022-12-26T00:43:14.812Z,11.45
2022-12-26T00:45:36.612Z,11.46
2022-12-26T00:47:58.025Z,11.44
2022-12-26T00:50:19.520Z,11.45
2022-12-26T00:52:40.977Z,11.43
2022-12-26T00:55:02.426Z,11.41
2022-12-26T00:57:23.847Z,11.40
2022-12-26T00:59:45.323Z,11.38
2022-12-26T01:02:26.857Z,11.35
2022-12-26T01:04:48.396Z,11.33
2022-12-26T01:07:09.841Z,11.33
2022-12-26T01:09:31.316Z,11.33
2022-12-26T01:11:52.831Z,11.34
2022-12-26T01:14:17.859Z,11.34
2022-12-26T01:16:40.899Z,11.36
2022-12-26T01:19:02.541Z,11.34
2022-12-26T01:21:23.977Z,11.46
2022-12-26T01:23:45.501Z,11.35
2022-12-26T01:26:15.359Z,11.39
2022-12-26T01:28:40.811Z,11.46
2022-12-26T01:31:04.288Z,11.45
2022-12-26T01:33:25.794Z,11.46
2022-12-26T01:35:51.749Z,11.42
2022-12-26T01:38:13.323Z,11.31
2022-12-26T01:40:34.778Z,11.33
2022-12-26T01:42:56.277Z,11.40
2022-12-26T01:45:30.761Z,11.42
2022-12-26T01:47:59.825Z,11.39
2022-12-26T01:50:43.387Z,11.46
2022-12-26T01:53:14.064Z,11.42
2022-12-26T01:55:37.055Z,11.45
2022-12-26T01:58:04.941Z,11.48
2022-12-26T02:00:26.485Z,11.56
2022-12-26T02:03:07.473Z,11.56
2022-12-26T02:05:33.979Z,11.52
2022-12-26T02:07:55.443Z,11.54
2022-12-26T02:10:23.676Z,11.58
2022-12-26T02:12:45.632Z,11.59
2022-12-26T02:15:13.178Z,11.55
2022-12-26T02:17:34.763Z,11.57
2022-12-26T02:20:22.493Z,11.62
2022-12-26T02:23:18.222Z,11.57
2022-12-26T02:25:48.372Z,11.60
2022-12-26T02:28:43.558Z,11.61
2022-12-26T02:31:16.876Z,11.69
2022-12-26T02:34:07.739Z,11.66
2022-12-26T02:36:32.150Z,11.65
2022-12-26T02:39:45.663Z,11.70
2022-12-26T02:42:10.694Z,11.69
2022-12-26T02:45:38.480Z,11.67
2022-12-26T02:48:10.520Z,11.63
2022-12-26T02:51:15.661Z,11.67
2022-12-26T02:54:09.207Z,11.70
2022-12-26T02:57:12.402Z,11.68
2022-12-26T03:00:37.347Z,11.69
2022-12-26T03:03:23.248Z,11.68
2022-12-26T03:06:22.074Z,11.78
2022-12-26T03:09:16.356Z,11.75
2022-12-26T03:11:59.821Z,11.73
2022-12-26T03:14:32.305Z,11.77
2022-12-26T03:17:19.656Z,11.77
2022-12-26T03:19:58.326Z,11.78
2022-12-26T03:22:32.078Z,11.78
2022-12-26T03:25:12.396Z,11.81
2022-12-26T03:27:34.068Z,11.93
2022-12-26T03:30:21.839Z,11.97
2022-12-26T03:32:44.188Z,11.92
2022-12-26T03:35:13.273Z,11.87
2022-12-26T03:37:52.893Z,11.86
2022-12-26T03:40:48.846Z,11.90
2022-12-26T03:43:39.884Z,11.83
2022-12-26T03:46:34.230Z,11.76
2022-12-26T03:49:33.456Z,11.72
2022-12-26T03:52:25.939Z,11.81
2022-12-26T03:55:21.479Z,11.74
2022-12-26T03:58:10.385Z,11.73
2022-12-26T04:00:52.186Z,11.75
2022-12-26T04:03:32.900Z,11.73
2022-12-26T04:06:15.756Z,11.71
2022-12-26T04:09:22.661Z,11.72
2022-12-26T04:12:04.214Z,11.78
2022-12-26T04:14:59.887Z,11.77
2022-12-26T04:17:47.255Z,11.78
2022-12-26T04:20:16.688Z,11.89
2022-12-26T04:23:09.029Z,11.83
2022-12-26T04:25:54.736Z,11.77
2022-12-26T04:28:34.945Z,11.69
2022-12-26T04:31:25.701Z,11.66
2022-12-26T04:34:14.450Z,11.73
2022-12-26T04:37:20.018Z,11.84
2022-12-26T04:40:03.592Z,11.74
2022-12-26T04:42:45.902Z,11.71
2022-12-26T04:45:08.849Z,11.75
2022-12-26T04:47:32.213Z,11.64
2022-12-26T04:50:12.095Z,11.66
2022-12-26T04:52:51.998Z,11.72
2022-12-26T04:55:13.579Z,11.61
2022-12-26T04:57:35.017Z,11.60
2022-12-26T04:59:56.460Z,11.53
2022-12-26T05:02:36.387Z,11.46
2022-12-26T05:05:16.677Z,11.42
2022-12-26T05:08:07.080Z,11.44
2022-12-26T05:10:28.749Z,11.43
2022-12-26T05:12:50.367Z,11.32
2022-12-26T05:15:12.431Z,11.29
2022-12-26T05:17:52.240Z,11.33
2022-12-26T05:20:32.292Z,11.28
2022-12-26T05:23:12.444Z,11.21
2022-12-26T05:25:56.339Z,11.23
2022-12-26T05:28:37.130Z,11.22
2022-12-26T05:30:59.070Z,11.22
2022-12-26T05:33:39.273Z,11.14
2022-12-26T05:36:00.768Z,11.16
2022-12-26T05:38:22.194Z,11.18
2022-12-26T05:40:43.655Z,11.20
2022-12-26T05:43:05.070Z,11.22
2022-12-26T05:45:26.529Z,11.33
2022-12-26T05:47:51.775Z,11.34
2022-12-26T05:50:13.773Z,11.39
2022-12-26T05:52:35.317Z,11.39
2022-12-26T05:54:56.812Z,11.39
2022-12-26T05:57:18.252Z,11.40
2022-12-26T05:59:39.755Z,11.40
2022-12-26T06:02:01.433Z,11.38
2022-12-26T06:04:22.958Z,11.27
2022-12-26T06:06:44.424Z,11.26
2022-12-26T06:09:05.853Z,11.28
2022-12-26T06:11:27.461Z,11.14
2022-12-26T06:13:48.904Z,11.25
2022-12-26T06:16:13.889Z,11.27
2022-12-26T06:18:35.771Z,11.19
2022-12-26T06:20:57.182Z,11.23
2022-12-26T06:23:18.609Z,11.21
2022-12-26T06:25:40.098Z,11.18
2022-12-26T06:28:01.529Z,11.25
2022-12-26T06:30:23.026Z,11.24
2022-12-26T06:32:44.457Z,11.25
2022-12-26T06:35:06.325Z,11.22
2022-12-26T06:37:27.804Z,11.27
2022-12-26T06:39:49.239Z,11.28
2022-12-26T06:42:10.654Z,11.23
2022-12-26T06:44:32.697Z,11.19
2022-12-26T06:46:54.168Z,11.20
2022-12-26T06:49:15.691Z,11.19
2022-12-26T06:51:37.110Z,11.20
2022-12-26T06:54:02.451Z,11.28
2022-12-26T06:56:26.611Z,11.27
2022-12-26T06:58:48.816Z,11.36
2022-12-26T07:01:16.260Z,11.39
2022-12-26T07:03:38.315Z,11.29
2022-12-26T07:06:04.549Z,11.28
2022-12-26T07:08:25.993Z,11.29
2022-12-26T07:10:47.465Z,11.27
2022-12-26T07:13:08.908Z,11.28
2022-12-26T07:15:30.428Z,11.36
2022-12-26T07:17:52.323Z,11.31
2022-12-26T07:20:13.853Z,11.35
2022-12-26T07:22:35.290Z,11.27
2022-12-26T07:24:56.775Z,11.33
2022-12-26T07:27:18.192Z,11.36
2022-12-26T07:29:39.687Z,11.43
2022-12-26T07:32:01.227Z,11.40
2022-12-26T07:34:27.848Z,11.45
2022-12-26T07:36:52.566Z,11.45
2022-12-26T07:39:14.417Z,11.43
2022-12-26T07:41:54.495Z,11.49
2022-12-26T07:44:15.985Z,11.40
2022-12-26T07:46:37.777Z,11.38
2022-12-26T07:48:59.313Z,11.34
2022-12-26T07:51:21.316Z,11.29
2022-12-26T07:53:42.742Z,11.37
2022-12-26T07:56:04.337Z,11.34
2022-12-26T07:58:25.909Z,11.31
2022-12-26T08:00:47.398Z,11.36
2022-12-26T08:03:09.484Z,11.19
2022-12-26T08:05:31.042Z,11.24
2022-12-26T08:07:52.482Z,11.17
2022-12-26T08:10:14.926Z,11.19
2022-12-26T08:12:36.450Z,11.18
2022-12-26T08:14:57.901Z,11.14
2022-12-26T08:17:19.357Z,11.12
2022-12-26T08:19:40.795Z,11.13
2022-12-26T08:22:02.261Z,11.08
2022-12-26T08:24:23.914Z,11.14
2022-12-26T08:26:45.428Z,11.15
2022-12-26T08:29:06.891Z,11.23
2022-12-26T08:31:28.404Z,11.22
2022-12-26T08:33:50.203Z,11.25
2022-12-26T08:36:13.039Z,11.10
2022-12-26T08:38:34.564Z,11.15
2022-12-26T08:40:59.218Z,11.11
2022-12-26T08:43:34.915Z,11.08
2022-12-26T08:46:05.428Z,11.01
2022-12-26T08:48:26.949Z,11.11
2022-12-26T08:50:48.392Z,11.07
2022-12-26T08:53:09.801Z,11.17
2022-12-26T08:55:31.246Z,11.12
2022-12-26T08:57:52.682Z,11.18
2022-12-26T09:00:14.748Z,11.25
2022-12-26T09:02:36.379Z,11.31
2022-12-26T09:04:57.925Z,11.42
2022-12-26T09:07:19.384Z,11.36
2022-12-26T09:09:40.869Z,11.32
2022-12-26T09:12:02.651Z,11.32
2022-12-26T09:14:24.174Z,11.27
2022-12-26T09:16:50.467Z,11.31
2022-12-26T09:19:17.629Z,11.27
2022-12-26T09:21:39.335Z,11.35
2022-12-26T09:24:06.255Z,11.33
2022-12-26T09:26:28.396Z,11.37
2022-12-26T09:28:49.938Z,11.46
2022-12-26T09:31:20.629Z,11.45
2022-12-26T09:33:42.367Z,11.55
2022-12-26T09:36:14.791Z,11.55
2022-12-26T09:38:37.037Z,11.52
2022-12-26T09:41:01.299Z,11.48
2022-12-26T09:43:46.670Z,11.49
2022-12-26T09:46:26.338Z,11.44
2022-12-26T09:48:57.746Z,11.33
2022-12-26T09:51:19.189Z,11.28
2022-12-26T09:53:44.130Z,11.26
2022-12-26T09:56:18.280Z,11.27
2022-12-26T09:58:52.351Z,11.25
2022-12-26T10:01:17.497Z,11.31
2022-12-26T10:03:43.251Z,11.33
2022-12-26T10:06:13.573Z,11.33
2022-12-26T10:08:44.232Z,11.22
2022-12-26T10:11:11.363Z,11.24
2022-12-26T10:13:49.459Z,11.36
2022-12-26T10:16:34.804Z,11.27
2022-12-26T10:19:11.474Z,11.25
2022-12-26T10:21:57.276Z,11.18
2022-12-26T10:24:22.643Z,11.10
2022-12-26T10:26:49.863Z,11.08
2022-12-26T10:29:26.815Z,11.06
2022-12-26T10:32:02.630Z,11.08
2022-12-26T10:34:31.004Z,11.02
2022-12-26T10:37:05.158Z,11.10
2022-12-26T10:39:33.446Z,11.12
2022-12-26T10:42:00.967Z,11.09
2022-12-26T10:44:27.536Z,11.16
2022-12-26T10:47:19.702Z,11.18
2022-12-26T10:49:44.512Z,11.15
2022-12-26T10:52:06.059Z,11.00
2022-12-26T10:54:29.192Z,11.01
2022-12-26T10:56:53.336Z,11.09
2022-12-26T10:59:22.227Z,11.17
2022-12-26T11:01:47.685Z,11.33
2022-12-26T11:05:02.031Z,11.46
2022-12-26T11:07:11.451Z,11.47
2022-12-26T11:09:45.841Z,11.45
2022-12-26T11:12:23.122Z,11.58
2022-12-26T11:14:45.771Z,11.46
2022-12-26T11:17:12.024Z,11.55
2022-12-26T11:19:36.781Z,11.51
2022-12-26T11:22:24.946Z,11.54
2022-12-26T11:24:46.653Z,11.56
2022-12-26T11:27:20.215Z,11.58
2022-12-26T11:29:42.608Z,11.64
2022-12-26T11:32:04.940Z,11.66
2022-12-26T11:34:37.822Z,11.68
2022-12-26T11:36:59.351Z,11.63
2022-12-26T11:39:39.264Z,11.59
2022-12-26T11:42:00.994Z,11.65
2022-12-26T11:44:29.446Z,11.67
2022-12-26T11:47:06.147Z,11.88
2022-12-26T11:49:41.587Z,11.75
2022-12-26T11:52:31.655Z,11.76
2022-12-26T11:54:53.180Z,11.93
2022-12-26T11:57:22.212Z,11.86
2022-12-26T11:59:44.310Z,11.88
2022-12-26T12:02:19.867Z,11.83
2022-12-26T12:04:41.607Z,11.89
2022-12-26T12:07:18.761Z,11.94
2022-12-26T12:10:32.705Z,11.85
2022-12-26T12:13:07.948Z,11.83
2022-12-26T12:15:36.622Z,11.84
2022-12-26T12:18:22.580Z,11.86
2022-12-26T12:21:04.326Z,11.84
2022-12-26T12:23:49.364Z,11.79
2022-12-26T12:26:18.077Z,11.73
2022-12-26T12:29:02.299Z,11.84
2022-12-26T12:31:49.096Z,11.78
2022-12-26T12:34:26.644Z,11.86
2022-12-26T12:37:15.468Z,11.91
2022-12-26T12:40:04.725Z,11.74
2022-12-26T12:42:49.832Z,11.73
2022-12-26T12:45:27.102Z,11.60
2022-12-26T12:47:51.441Z,11.55
2022-12-26T12:50:17.337Z,11.54
2022-12-26T12:52:42.326Z,11.47
2022-12-26T12:55:45.715Z,11.52
2022-12-26T12:58:25.883Z,11.45
2022-12-26T13:00:54.873Z,11.57
2022-12-26T13:03:27.431Z,11.64
2022-12-26T13:06:04.320Z,11.65
2022-12-26T13:08:36.506Z,11.46
2022-12-26T13:11:03.842Z,11.46
2022-12-26T13:13:34.418Z,11.48
2022-12-26T13:16:12.199Z,11.49
2022-12-26T13:18:38.404Z,11.62
2022-12-26T13:21:10.528Z,11.53
2022-12-26T13:23:59.837Z,11.46
2022-12-26T13:26:30.929Z,11.45
2022-12-26T13:29:16.789Z,11.48
2022-12-26T13:31:39.887Z,11.33
2022-12-26T13:34:02.354Z,11.35
2022-12-26T13:36:41.269Z,11.32
2022-12-26T13:39:27.189Z,11.24
2022-12-26T13:42:11.011Z,11.21
2022-12-26T13:44:32.978Z,11.23
2022-12-26T13:46:57.463Z,11.15
2022-12-26T13:49:40.011Z,11.12
2022-12-26T13:52:10.419Z,11.11
2022-12-26T13:54:32.216Z,11.08
2022-12-26T13:57:12.010Z,11.03
2022-12-26T13:59:43.199Z,10.92
2022-12-26T14:03:16.191Z,11.00
2022-12-26T14:05:35.071Z,11.05
2022-12-26T14:08:15.052Z,10.94
2022-12-26T14:11:14.398Z,10.90
2022-12-26T14:13:49.554Z,10.75
2022-12-26T14:16:18.945Z,10.80
2022-12-26T14:19:00.997Z,10.68
2022-12-26T14:21:45.636Z,10.67
2022-12-26T14:24:13.120Z,10.64
2022-12-26T14:26:46.819Z,10.48
2022-12-26T14:29:39.258Z,10.42
2022-12-26T14:32:25.065Z,10.36
2022-12-26T14:35:03.428Z,10.37
2022-12-26T14:37:43.796Z,10.31
2022-12-26T14:40:18.744Z,10.36
2022-12-26T14:43:12.542Z,10.32
2022-12-26T14:45:38.931Z,10.31
2022-12-26T14:48:00.748Z,10.31
2022-12-26T14:50:48.642Z,10.30
2022-12-26T14:53:31.508Z,10.26
2022-12-26T14:56:01.122Z,10.19
2022-12-26T14:58:32.159Z,10.08
2022-12-26T15:00:54.786Z,10.00
2022-12-26T15:03:37.547Z,9.95
2022-12-26T15:06:19.539Z,10.05
2022-12-26T15:09:19.699Z,9.96
2022-12-26T15:12:08.483Z,9.96
2022-12-26T15:14:35.920Z,9.96
2022-12-26T15:17:12.536Z,9.96
2022-12-26T15:20:11.282Z,9.95
2022-12-26T15:22:57.268Z,9.93
2022-12-26T15:25:56.541Z,9.86
2022-12-26T15:28:36.042Z,9.87
2022-12-26T15:31:25.784Z,9.86
2022-12-26T15:33:58.787Z,9.91
2022-12-26T15:36:48.674Z,9.88
2022-12-26T15:39:18.959Z,9.82
2022-12-26T15:41:46.275Z,9.82
2022-12-26T15:44:39.573Z,9.86
2022-12-26T15:47:00.976Z,9.92
2022-12-26T15:49:44.605Z,9.82
2022-12-26T15:52:29.154Z,9.71
2022-12-26T15:55:30.014Z,9.63
2022-12-26T15:58:45.422Z,9.44
2022-12-26T16:01:10.293Z,9.30
2022-12-26T16:03:41.819Z,9.23
2022-12-26T16:06:29.522Z,9.22
2022-12-26T16:09:09.448Z,9.08
2022-12-26T16:11:53.979Z,9.01
2022-12-26T16:14:36.611Z,8.95
2022-12-26T16:17:13.240Z,8.95
2022-12-26T16:19:34.736Z,8.97
2022-12-26T16:22:20.491Z,8.88
2022-12-26T16:24:43.796Z,8.95
2022-12-26T16:27:08.217Z,8.94
2022-12-26T16:29:31.425Z,8.86
2022-12-26T16:32:02.623Z,8.91
2022-12-26T16:34:25.243Z,8.90
2022-12-26T16:36:49.999Z,8.89
2022-12-26T16:39:12.911Z,8.84
2022-12-26T16:41:38.265Z,8.82
2022-12-26T16:44:39.373Z,8.81
2022-12-26T16:47:07.590Z,8.87
2022-12-26T16:49:31.546Z,8.83
2022-12-26T16:51:54.893Z,8.82
2022-12-26T16:54:22.257Z,8.89
2022-12-26T16:57:07.730Z,8.95
2022-12-26T16:59:38.285Z,9.07
2022-12-26T17:02:00.952Z,8.99
2022-12-26T17:04:25.089Z,8.94
2022-12-26T17:07:00.886Z,9.03
2022-12-26T17:09:24.720Z,8.99
2022-12-26T17:11:57.033Z,8.96
2022-12-26T17:14:28.282Z,9.03
2022-12-26T17:16:57.669Z,9.07
2022-12-26T17:19:21.327Z,9.17
2022-12-26T17:21:42.767Z,9.20
2022-12-26T17:24:24.230Z,9.00
2022-12-26T17:26:52.971Z,8.74
2022-12-26T17:29:37.881Z,8.32
2022-12-26T17:31:59.356Z,8.11
2022-12-26T17:34:25.535Z,7.95
2022-12-26T17:37:18.631Z,7.90
2022-12-26T17:39:28.439Z,7.84
2022-12-26T17:41:55.873Z,7.89
2022-12-26T17:44:40.062Z,7.99
2022-12-26T17:47:09.190Z,7.98
2022-12-26T17:49:30.649Z,8.00
2022-12-26T17:51:59.953Z,7.95
2022-12-26T17:54:23.192Z,7.95
2022-12-26T17:56:44.613Z,7.98
2022-12-26T17:59:13.805Z,8.07
2022-12-26T18:01:35.506Z,8.09
2022-12-26T18:03:57.377Z,7.95
2022-12-26T18:06:19.575Z,7.88
2022-12-26T18:08:41.575Z,7.87
2022-12-26T18:11:06.061Z,7.82
2022-12-26T18:13:28.231Z,7.80
2022-12-26T18:15:51.125Z,7.76
2022-12-26T18:18:32.055Z,7.78
2022-12-26T18:20:53.623Z,7.82
2022-12-26T18:23:15.073Z,7.73
2022-12-26T18:25:38.116Z,7.78
2022-12-26T18:27:59.710Z,7.87
2022-12-26T18:30:24.223Z,7.73
2022-12-26T18:32:46.909Z,7.71
2022-12-26T18:35:08.877Z,7.67
2022-12-26T18:37:30.677Z,7.62
2022-12-26T18:39:52.718Z,7.63
2022-12-26T18:42:15.832Z,7.61
2022-12-26T18:44:38.119Z,7.63
2022-12-26T18:46:59.585Z,7.50
2022-12-26T18:49:21.022Z,7.52
2022-12-26T18:51:42.540Z,7.49
2022-12-26T18:54:04.152Z,7.52
2022-12-26T18:56:26.205Z,7.50
2022-12-26T18:58:53.936Z,7.45
2022-12-26T19:01:20.004Z,7.45
2022-12-26T19:03:42.338Z,7.40
2022-12-26T19:06:04.198Z,7.43
2022-12-26T19:08:25.616Z,7.45
2022-12-26T19:10:49.798Z,7.50
2022-12-26T19:13:11.270Z,7.48
2022-12-26T19:15:35.146Z,7.44
2022-12-26T19:17:56.593Z,7.38
2022-12-26T19:20:25.281Z,7.27
2022-12-26T19:22:48.351Z,7.24
2022-12-26T19:25:09.918Z,7.18
2022-12-26T19:27:31.361Z,7.27
2022-12-26T19:29:52.801Z,7.27
2022-12-26T19:32:14.298Z,7.31
2022-12-26T19:34:35.814Z,7.37
2022-12-26T19:36:57.285Z,7.27
2022-12-26T19:39:18.887Z,7.21
2022-12-26T19:41:40.452Z,7.21
2022-12-26T19:44:02.279Z,7.22
2022-12-26T19:46:24.367Z,7.25
2022-12-26T19:48:45.820Z,7.13
2022-12-26T19:51:09.031Z,7.24
2022-12-26T19:53:30.517Z,7.15
2022-12-26T19:55:52.022Z,7.08
2022-12-26T19:58:13.458Z,7.07
2022-12-26T20:00:35.041Z,7.03
2022-12-26T20:02:56.485Z,7.12
2022-12-26T20:05:18.010Z,7.15
2022-12-26T20:07:39.489Z,7.01
2022-12-26T20:10:00.976Z,6.97
2022-12-26T20:12:22.695Z,6.94
2022-12-26T20:14:44.163Z,6.99
2022-12-26T20:17:07.588Z,6.94
2022-12-26T20:19:29.647Z,6.91
2022-12-26T20:21:51.706Z,6.90
2022-12-26T20:24:14.047Z,6.86
2022-12-26T20:26:35.496Z,6.93
2022-12-26T20:29:01.246Z,6.90
2022-12-26T20:31:23.267Z,6.93
2022-12-26T20:33:46.832Z,6.98
2022-12-26T20:36:10.385Z,7.06
2022-12-26T20:38:32.324Z,6.93
2022-12-26T20:40:53.776Z,7.00
2022-12-26T20:43:15.190Z,6.88
2022-12-26T20:45:37.787Z,6.87
2022-12-26T20:47:59.403Z,6.91
2022-12-26T20:50:22.814Z,6.86
2022-12-26T20:52:44.262Z,6.63
2022-12-26T20:55:06.268Z,6.62
2022-12-26T20:57:27.752Z,6.51
2022-12-26T20:59:49.198Z,6.37
2022-12-26T21:02:13.776Z,6.23
2022-12-26T21:04:35.516Z,6.11
2022-12-26T21:06:57.040Z,6.04
2022-12-26T21:09:18.578Z,5.93
2022-12-26T21:11:42.649Z,5.77
2022-12-26T21:14:07.682Z,5.76
2022-12-26T21:16:34.904Z,5.77
2022-12-26T21:18:56.815Z,5.77
2022-12-26T21:21:21.761Z,5.86
2022-12-26T21:23:43.514Z,5.82
2022-12-26T21:26:05.730Z,6.04
2022-12-26T21:28:27.360Z,6.07
2022-12-26T21:30:48.822Z,5.98
2022-12-26T21:33:10.277Z,5.90
2022-12-26T21:35:31.749Z,5.87
2022-12-26T21:37:53.213Z,6.03
2022-12-26T21:40:15.236Z,5.98
2022-12-26T21:42:36.834Z,6.00
2022-12-26T21:44:58.317Z,6.00
2022-12-26T21:47:19.958Z,5.68
2022-12-26T21:49:41.553Z,5.50
2022-12-26T21:52:04.323Z,5.48
2022-12-26T21:54:48.810Z,5.27
2022-12-26T21:57:10.887Z,5.26
2022-12-26T21:59:50.716Z,5.12
2022-12-26T22:02:34.082Z,4.99
2022-12-26T22:04:55.663Z,4.84
2022-12-26T22:07:17.113Z,4.79
2022-12-26T22:09:38.915Z,4.80
2022-12-26T22:12:18.976Z,4.77
2022-12-26T22:14:40.431Z,4.72
2022-12-26T22:17:01.875Z,4.75
2022-12-26T22:19:26.321Z,4.71
2022-12-26T22:21:47.750Z,4.64
2022-12-26T22:24:12.899Z,4.70
2022-12-26T22:26:34.395Z,4.57
2022-12-26T22:28:57.412Z,4.57
2022-12-26T22:31:25.547Z,4.47
2022-12-26T22:33:47.851Z,4.45
2022-12-26T22:36:12.885Z,4.36
2022-12-26T22:38:35.658Z,4.29
2022-12-26T22:40:58.825Z,4.32
2022-12-26T22:43:20.367Z,4.28
2022-12-26T22:45:41.867Z,4.10
2022-12-26T22:48:03.827Z,4.02
2022-12-26T22:50:25.391Z,4.01
2022-12-26T22:52:46.845Z,3.97
2022-12-26T22:55:08.659Z,3.85
2022-12-26T22:57:30.101Z,3.69
2022-12-26T23:00:08.170Z,3.73
2022-12-26T23:02:30.615Z,3.56
2022-12-26T23:04:52.419Z,3.53
2022-12-26T23:07:18.782Z,3.55
2022-12-26T23:09:40.363Z,3.45
2022-12-26T23:12:20.636Z,3.38
2022-12-26T23:14:42.225Z,3.35
2022-12-26T23:17:10.196Z,3.24
2022-12-26T23:20:04.249Z,3.25
2022-12-26T23:22:25.894Z,3.18
2022-12-26T23:24:47.514Z,3.24
2022-12-26T23:27:28.325Z,3.05
2022-12-26T23:30:09.801Z,3.06
2022-12-26T23:32:31.470Z,2.91
2022-12-26T23:34:52.907Z,2.97
2022-12-26T23:37:14.352Z,3.00
2022-12-26T23:39:35.966Z,2.98
2022-12-26T23:41:57.455Z,2.92
2022-12-26T23:44:19.626Z,2.90
2022-12-26T23:46:41.506Z,2.89
2022-12-26T23:49:03.091Z,2.83
2022-12-26T23:51:24.650Z,2.80
2022-12-26T23:53:46.073Z,2.79
2022-12-26T23:56:10.648Z,2.82
2022-12-26T23:58:32.115Z,2.82
